Time;durP1;ratioP1;P1;durP2;ratioP2;P2;SDS_P1;SDS_P2;PMS_P1;PMS_P2;Temp;Humidity;BMP_temperature;BMP_pressure;BME280_temperature;BME280_humidity;BME280_pressure;Samples;Min_cycle;Max_cycle;Signal;HPM_P1;HPM_P2
2023/10/25 00:01:13;;;;;;;3.78;1.13;;;;;;;;;;5055920;28;20027;-72
2023/10/25 00:03:39;;;;;;;3.08;1.00;;;;;;;;;;5055984;28;20029;-72
2023/10/25 00:06:06;;;;;;;2.65;1.20;;;;;;;;;;5055817;28;20486;-72
2023/10/25 00:08:32;;;;;;;2.33;0.93;;;;;;;;;;5055804;28;20044;-72
2023/10/25 00:11:06;;;;;;;1.10;1.00;;;;;;;;;;5055367;28;20021;-72
2023/10/25 00:13:32;;;;;;;1.33;0.88;;;;;;;;;;5055533;28;20470;-72
2023/10/25 00:15:58;;;;;;;3.15;0.90;;;;;;;;;;5055817;28;20029;-72
2023/10/25 00:18:25;;;;;;;4.93;1.10;;;;;;;;;;5055588;28;20021;-72
2023/10/25 00:20:52;;;;;;;4.68;1.15;;;;;;;;;;5055529;28;20059;-72
2023/10/25 00:23:19;;;;;;;1.27;0.90;;;;;;;;;;5055535;28;20098;-72
2023/10/25 00:25:46;;;;;;;2.95;0.98;;;;;;;;;;5055144;28;20025;-71
2023/10/25 00:28:12;;;;;;;3.97;1.10;;;;;;;;;;5055627;28;20033;-72
2023/10/25 00:30:38;;;;;;;1.92;0.80;;;;;;;;;;5055379;28;20027;-72
2023/10/25 00:33:05;;;;;;;3.20;1.05;;;;;;;;;;5055549;28;20033;-71
2023/10/25 00:35:31;;;;;;;2.78;1.00;;;;;;;;;;5055314;28;20025;-72
2023/10/25 00:37:58;;;;;;;3.10;1.00;;;;;;;;;;5055326;28;20021;-72
2023/10/25 00:40:24;;;;;;;1.23;0.82;;;;;;;;;;5052910;28;20055;-72
2023/10/25 00:42:50;;;;;;;6.00;1.38;;;;;;;;;;5055228;28;20069;-72
2023/10/25 00:45:17;;;;;;;1.70;1.10;;;;;;;;;;5053835;28;20478;-72
2023/10/25 00:47:44;;;;;;;4.30;1.20;;;;;;;;;;5055295;28;20017;-72
2023/10/25 00:50:10;;;;;;;1.77;1.17;;;;;;;;;;5053710;28;20049;-72
2023/10/25 00:52:40;;;;;;;1.73;1.00;;;;;;;;;;5054007;28;20094;-71
2023/10/25 00:55:07;;;;;;;1.20;0.70;;;;;;;;;;5054633;28;20028;-72
2023/10/25 00:57:33;;;;;;;5.10;1.35;;;;;;;;;;5054977;28;20025;-72
2023/10/25 01:00:00;;;;;;;2.00;0.95;;;;;;;;;;5054902;28;20036;-72
2023/10/25 01:02:27;;;;;;;6.07;1.10;;;;;;;;;;5055007;28;20027;-72
2023/10/25 01:04:54;;;;;;;4.72;1.20;;;;;;;;;;5054708;28;20482;-71
2023/10/25 01:07:20;;;;;;;1.65;0.77;;;;;;;;;;5054789;28;20021;-72
2023/10/25 01:09:47;;;;;;;2.50;0.90;;;;;;;;;;5054110;28;20448;-72
2023/10/25 01:12:14;;;;;;;1.48;0.90;;;;;;;;;;5053706;28;20032;-72
2023/10/25 01:14:40;;;;;;;2.72;0.88;;;;;;;;;;5054755;28;20029;-71
2023/10/25 01:17:06;;;;;;;2.72;0.70;;;;;;;;;;5054734;28;20033;-72
2023/10/25 01:19:33;;;;;;;1.60;0.98;;;;;;;;;;5054853;28;20035;-72
2023/10/25 01:22:00;;;;;;;2.20;0.80;;;;;;;;;;5054432;28;20028;-71
2023/10/25 01:24:26;;;;;;;2.05;1.10;;;;;;;;;;5054062;28;20563;-72
2023/10/25 01:26:52;;;;;;;3.97;1.30;;;;;;;;;;5054684;28;20021;-72
2023/10/25 01:29:19;;;;;;;3.15;1.20;;;;;;;;;;5054121;28;20048;-72
2023/10/25 01:31:45;;;;;;;4.97;1.42;;;;;;;;;;5054328;28;20021;-72
2023/10/25 01:34:11;;;;;;;1.75;1.13;;;;;;;;;;5054476;28;20043;-72
2023/10/25 01:36:38;;;;;;;5.88;1.02;;;;;;;;;;5054191;28;20017;-71
2023/10/25 01:39:05;;;;;;;1.38;0.85;;;;;;;;;;5053875;28;20035;-72
2023/10/25 01:41:31;;;;;;;1.17;0.85;;;;;;;;;;5054045;28;20032;-72
2023/10/25 01:43:57;;;;;;;2.95;0.90;;;;;;;;;;5054304;28;20017;-71
2023/10/25 01:46:23;;;;;;;2.28;0.85;;;;;;;;;;5054189;28;20074;-71
2023/10/25 01:48:50;;;;;;;1.00;0.70;;;;;;;;;;5053940;28;20033;-72
2023/10/25 01:51:16;;;;;;;3.28;1.17;;;;;;;;;;5053887;28;20021;-72
2023/10/25 01:53:42;;;;;;;2.25;0.98;;;;;;;;;;5053331;28;20047;-72
2023/10/25 01:56:09;;;;;;;6.10;1.20;;;;;;;;;;5054067;28;20055;-72
2023/10/25 01:58:35;;;;;;;2.70;1.02;;;;;;;;;;5052615;28;20053;-72
2023/10/25 02:01:06;;;;;;;3.40;0.93;;;;;;;;;;5053970;28;20025;-72
2023/10/25 02:03:32;;;;;;;5.97;1.17;;;;;;;;;;5053674;28;20479;-72
2023/10/25 02:05:59;;;;;;;2.13;1.13;;;;;;;;;;5053589;28;20090;-72
2023/10/25 02:08:25;;;;;;;3.75;1.15;;;;;;;;;;5053598;28;20045;-72
2023/10/25 02:10:51;;;;;;;3.65;1.00;;;;;;;;;;5053452;28;20017;-72
2023/10/25 02:13:17;;;;;;;2.45;1.00;;;;;;;;;;5053512;28;20423;-72
2023/10/25 02:15:44;;;;;;;0.85;0.85;;;;;;;;;;5053274;28;20385;-72
2023/10/25 02:18:10;;;;;;;4.70;1.00;;;;;;;;;;5053381;28;20044;-72
2023/10/25 02:20:37;;;;;;;2.35;0.90;;;;;;;;;;5053091;28;20025;-71
2023/10/25 02:23:03;;;;;;;1.20;0.95;;;;;;;;;;5053459;28;20037;-71
2023/10/25 02:25:29;;;;;;;1.65;0.90;;;;;;;;;;5053204;28;20358;-72
2023/10/25 02:27:56;;;;;;;2.05;0.60;;;;;;;;;;5053024;28;20017;-72
2023/10/25 02:30:22;;;;;;;1.95;1.05;;;;;;;;;;5053107;28;20041;-72
2023/10/25 02:32:48;;;;;;;2.95;0.75;;;;;;;;;;5053362;28;20017;-72
2023/10/25 02:35:15;;;;;;;2.20;0.88;;;;;;;;;;5052993;28;20039;-72
2023/10/25 02:37:42;;;;;;;2.55;0.90;;;;;;;;;;5053220;28;20482;-72
2023/10/25 02:40:08;;;;;;;2.85;1.10;;;;;;;;;;5053270;28;20028;-72
2023/10/25 02:42:35;;;;;;;1.55;1.00;;;;;;;;;;5052909;28;20490;-72
2023/10/25 02:45:01;;;;;;;2.55;1.00;;;;;;;;;;5053196;28;20025;-72
2023/10/25 02:47:28;;;;;;;1.88;1.08;;;;;;;;;;5052778;28;20394;-72
2023/10/25 02:49:54;;;;;;;6.40;1.75;;;;;;;;;;5052418;28;20041;-72
2023/10/25 02:52:20;;;;;;;3.83;1.20;;;;;;;;;;5052693;28;20033;-72
2023/10/25 02:54:47;;;;;;;5.70;0.93;;;;;;;;;;5052775;28;20025;-71
2023/10/25 02:57:13;;;;;;;5.10;1.00;;;;;;;;;;5052745;28;20150;-71
2023/10/25 02:59:39;;;;;;;2.15;0.80;;;;;;;;;;5052525;28;20063;-72
2023/10/25 03:02:06;;;;;;;4.78;1.00;;;;;;;;;;5052815;28;20031;-72
2023/10/25 03:04:32;;;;;;;3.15;0.95;;;;;;;;;;5051682;28;20033;-72
2023/10/25 03:06:58;;;;;;;2.13;0.90;;;;;;;;;;5052758;28;20021;-72
2023/10/25 03:09:25;;;;;;;3.22;1.10;;;;;;;;;;5052466;28;20043;-72
2023/10/25 03:11:51;;;;;;;3.20;0.98;;;;;;;;;;5052425;28;20369;-72
2023/10/25 03:14:17;;;;;;;1.75;1.00;;;;;;;;;;5052337;28;20033;-71
2023/10/25 03:16:44;;;;;;;4.80;1.23;;;;;;;;;;5052722;28;20025;-72
2023/10/25 03:19:10;;;;;;;4.43;0.98;;;;;;;;;;5052100;28;20499;-72
2023/10/25 03:21:36;;;;;;;1.00;0.90;;;;;;;;;;5052421;28;20029;-72
2023/10/25 03:24:03;;;;;;;1.85;1.10;;;;;;;;;;5052664;28;20039;-72
2023/10/25 03:26:29;;;;;;;3.08;1.10;;;;;;;;;;5052745;28;20021;-72
2023/10/25 03:28:57;;;;;;;2.45;1.05;;;;;;;;;;5052127;28;20025;-72
2023/10/25 03:31:23;;;;;;;3.22;0.98;;;;;;;;;;5052523;28;20031;-72
2023/10/25 03:33:49;;;;;;;4.93;1.27;;;;;;;;;;5052261;28;20078;-72
2023/10/25 03:36:16;;;;;;;3.38;1.40;;;;;;;;;;5052318;28;20088;-72
2023/10/25 03:38:42;;;;;;;2.70;1.02;;;;;;;;;;5052387;28;20024;-72
2023/10/25 03:41:09;;;;;;;3.53;1.10;;;;;;;;;;5052276;28;20381;-72
2023/10/25 03:43:37;;;;;;;2.72;1.15;;;;;;;;;;5052222;28;20025;-72
2023/10/25 03:46:04;;;;;;;4.28;1.08;;;;;;;;;;5052355;28;20017;-71
2023/10/25 03:48:30;;;;;;;2.20;1.00;;;;;;;;;;5051813;28;20033;-72
2023/10/25 03:50:57;;;;;;;2.17;1.02;;;;;;;;;;5052227;28;20013;-71
2023/10/25 03:53:23;;;;;;;2.03;1.33;;;;;;;;;;5052114;28;20496;-72
2023/10/25 03:55:56;;;;;;;3.92;1.20;;;;;;;;;;5052528;28;20021;-72
2023/10/25 03:58:23;;;;;;;5.28;1.08;;;;;;;;;;5050653;28;20043;-72
2023/10/25 04:00:56;;;;;;;1.75;1.13;;;;;;;;;;5052360;28;20033;-71
2023/10/25 04:03:22;;;;;;;2.83;1.20;;;;;;;;;;5051899;28;20498;-71
2023/10/25 04:05:49;;;;;;;3.53;1.50;;;;;;;;;;5052285;28;20098;-72
2023/10/25 04:08:15;;;;;;;1.67;1.20;;;;;;;;;;5052132;28;20035;-72
2023/10/25 04:10:42;;;;;;;3.55;1.20;;;;;;;;;;5052290;28;20035;-71
2023/10/25 04:13:08;;;;;;;2.78;1.38;;;;;;;;;;5052004;28;20019;-72
2023/10/25 04:15:35;;;;;;;2.53;1.80;;;;;;;;;;5053805;28;20024;-72
2023/10/25 04:18:02;;;;;;;12.07;2.67;;;;;;;;;;5055696;28;20013;-72
2023/10/25 04:20:32;;;;;;;8.48;2.40;;;;;;;;;;5055727;28;20468;-71
2023/10/25 04:22:58;;;;;;;5.93;2.65;;;;;;;;;;5055556;28;20028;-72
2023/10/25 04:25:24;;;;;;;5.78;3.13;;;;;;;;;;5055646;28;20031;-72
2023/10/25 04:27:51;;;;;;;6.53;2.17;;;;;;;;;;5055640;28;20033;-72
2023/10/25 04:30:17;;;;;;;7.70;2.40;;;;;;;;;;5055005;28;20126;-72
2023/10/25 04:32:46;;;;;;;6.40;2.25;;;;;;;;;;5055207;28;20025;-72
2023/10/25 04:35:13;;;;;;;3.08;2.10;;;;;;;;;;5055266;28;20024;-72
2023/10/25 04:37:39;;;;;;;4.95;2.30;;;;;;;;;;5054284;28;20040;-72
2023/10/25 04:40:06;;;;;;;4.88;2.30;;;;;;;;;;5055242;28;20021;-72
2023/10/25 04:42:32;;;;;;;3.20;1.92;;;;;;;;;;5053964;28;20041;-72
2023/10/25 04:44:58;;;;;;;3.38;2.45;;;;;;;;;;5055153;28;20448;-72
2023/10/25 04:47:25;;;;;;;3.92;2.20;;;;;;;;;;5054802;28;20033;-72
2023/10/25 04:49:51;;;;;;;2.67;1.80;;;;;;;;;;5054988;28;20492;-71
2023/10/25 04:52:19;;;;;;;4.53;1.88;;;;;;;;;;5053817;28;20017;-72
2023/10/25 04:54:45;;;;;;;3.35;1.58;;;;;;;;;;5054954;28;20036;-72
2023/10/25 04:57:11;;;;;;;6.60;1.63;;;;;;;;;;5054820;28;20021;-72
2023/10/25 04:59:37;;;;;;;1.70;1.40;;;;;;;;;;5054698;28;20059;-72
2023/10/25 05:02:04;;;;;;;5.72;1.60;;;;;;;;;;5054594;28;20029;-71
2023/10/25 05:04:30;;;;;;;4.00;1.48;;;;;;;;;;5054782;28;20033;-72
2023/10/25 05:06:57;;;;;;;2.60;1.52;;;;;;;;;;5054842;28;20025;-72
2023/10/25 05:09:23;;;;;;;3.55;1.45;;;;;;;;;;5054684;28;20516;-72
2023/10/25 05:11:56;;;;;;;3.10;1.40;;;;;;;;;;5054634;28;20027;-72
2023/10/25 05:14:22;;;;;;;8.48;1.60;;;;;;;;;;5054424;28;20029;-72
2023/10/25 05:16:49;;;;;;;2.65;1.63;;;;;;;;;;5054791;28;20035;-71
2023/10/25 05:19:15;;;;;;;2.47;1.58;;;;;;;;;;5054465;28;20025;-72
2023/10/25 05:21:46;;;;;;;1.83;1.10;;;;;;;;;;5054527;28;20031;-72
2023/10/25 05:24:12;;;;;;;3.47;1.67;;;;;;;;;;5054516;28;20474;-72
2023/10/25 05:26:39;;;;;;;2.42;1.00;;;;;;;;;;5053917;28;20025;-72
2023/10/25 05:29:05;;;;;;;2.85;1.27;;;;;;;;;;5053890;28;20511;-72
2023/10/25 05:31:32;;;;;;;2.10;1.15;;;;;;;;;;5054274;28;20029;-72
2023/10/25 05:33:59;;;;;;;5.20;1.10;;;;;;;;;;5054403;28;20035;-72
2023/10/25 05:36:25;;;;;;;3.60;1.20;;;;;;;;;;5054056;28;20021;-71
2023/10/25 05:38:52;;;;;;;7.53;1.00;;;;;;;;;;5054215;28;20024;-71
2023/10/25 05:41:24;;;;;;;2.92;1.15;;;;;;;;;;5053953;28;20033;-71
2023/10/25 05:44:11;;;;;;;3.05;1.30;;;;;;;;;;5054004;28;20035;-71
2023/10/25 05:46:37;;;;;;;4.93;1.40;;;;;;;;;;5053996;28;20478;-72
2023/10/25 05:49:03;;;;;;;5.10;1.25;;;;;;;;;;5053864;28;20040;-71
2023/10/25 05:51:30;;;;;;;4.65;1.13;;;;;;;;;;5053992;28;20025;-72
2023/10/25 05:53:56;;;;;;;2.05;1.30;;;;;;;;;;5053855;28;20090;-71
2023/10/25 05:56:26;;;;;;;5.38;1.30;;;;;;;;;;5053817;28;20025;-71
2023/10/25 05:58:56;;;;;;;7.90;1.63;;;;;;;;;;5053290;28;20043;-71
2023/10/25 06:01:33;;;;;;;2.20;1.10;;;;;;;;;;5053976;28;20035;-72
2023/10/25 06:03:59;;;;;;;3.13;1.05;;;;;;;;;;5053960;28;20021;-72
2023/10/25 06:06:26;;;;;;;2.50;1.27;;;;;;;;;;5053591;28;20025;-71
2023/10/25 06:08:53;;;;;;;4.13;1.10;;;;;;;;;;5053480;28;20049;-72
2023/10/25 06:11:19;;;;;;;3.90;1.20;;;;;;;;;;5046214;28;20017;-71
2023/10/25 06:13:46;;;;;;;2.65;1.27;;;;;;;;;;5048825;28;20020;-72
2023/10/25 06:16:13;;;;;;;3.80;2.20;;;;;;;;;;5051898;28;20126;-72
2023/10/25 06:18:39;;;;;;;3.42;1.48;;;;;;;;;;5032935;28;20029;-72
2023/10/25 06:21:06;;;;;;;1.77;1.27;;;;;;;;;;5046840;28;20071;-72
2023/10/25 06:23:34;;;;;;;2.50;1.33;;;;;;;;;;5052726;28;20033;-71
2023/10/25 06:26:00;;;;;;;3.20;1.60;;;;;;;;;;5049498;28;20025;-72
2023/10/25 06:28:26;;;;;;;6.32;1.40;;;;;;;;;;5038863;28;20013;-72
2023/10/25 06:30:52;;;;;;;5.15;1.88;;;;;;;;;;5039192;28;20241;-71
2023/10/25 06:33:19;;;;;;;5.38;2.22;;;;;;;;;;5036077;28;20360;-72
2023/10/25 06:35:45;;;;;;;6.88;1.63;;;;;;;;;;5032609;28;20059;-72
2023/10/25 06:38:12;;;;;;;4.43;1.98;;;;;;;;;;5032851;28;20030;-72
2023/10/25 06:40:38;;;;;;;7.28;1.80;;;;;;;;;;5032388;28;20398;-72
2023/10/25 06:43:05;;;;;;;3.28;1.60;;;;;;;;;;5032096;28;20047;-72
2023/10/25 06:45:31;;;;;;;5.13;2.65;;;;;;;;;;5032598;28;20032;-71
2023/10/25 06:47:58;;;;;;;5.00;3.65;;;;;;;;;;5033050;28;20512;-71
2023/10/25 06:50:26;;;;;;;9.02;3.10;;;;;;;;;;5032168;28;20039;-72
2023/10/25 06:52:52;;;;;;;1.55;1.40;;;;;;;;;;5032799;28;20018;-71
2023/10/25 06:55:19;;;;;;;2.25;1.50;;;;;;;;;;5050026;28;20393;-72
2023/10/25 06:57:46;;;;;;;2.08;1.40;;;;;;;;;;5047084;28;20405;-72
2023/10/25 07:00:13;;;;;;;3.00;1.35;;;;;;;;;;5051171;28;20050;-72
2023/10/25 07:03:01;;;;;;;2.10;1.50;;;;;;;;;;5049679;28;20031;-72
2023/10/25 07:05:28;;;;;;;3.70;1.40;;;;;;;;;;5045215;28;20402;-72
2023/10/25 07:07:55;;;;;;;8.27;4.25;;;;;;;;;;5051991;28;20036;-72
2023/10/25 07:10:22;;;;;;;16.50;10.95;;;;;;;;;;5051196;28;20028;-71
2023/10/25 07:12:49;;;;;;;10.48;5.85;;;;;;;;;;5048844;28;20021;-72
2023/10/25 07:15:15;;;;;;;24.25;19.23;;;;;;;;;;5048738;28;20039;-72
2023/10/25 07:17:42;;;;;;;11.00;6.20;;;;;;;;;;5043716;28;20031;-72
2023/10/25 07:20:12;;;;;;;18.08;7.53;;;;;;;;;;5046723;28;20025;-72
2023/10/25 07:22:39;;;;;;;7.83;3.37;;;;;;;;;;5051554;28;20497;-72
2023/10/25 07:25:06;;;;;;;6.25;2.63;;;;;;;;;;5049385;28;20259;-72
2023/10/25 07:27:32;;;;;;;6.47;2.83;;;;;;;;;;5049395;28;20021;-72
2023/10/25 07:29:58;;;;;;;6.63;2.45;;;;;;;;;;5050532;28;20040;-72
2023/10/25 07:32:26;;;;;;;4.43;1.65;;;;;;;;;;5048929;28;20102;-72
2023/10/25 07:34:52;;;;;;;6.03;1.90;;;;;;;;;;5057749;28;20045;-72
2023/10/25 07:37:18;;;;;;;6.88;2.58;;;;;;;;;;5046813;28;20017;-72
2023/10/25 07:39:44;;;;;;;4.95;2.10;;;;;;;;;;5050326;28;20025;-72
2023/10/25 07:42:11;;;;;;;7.13;2.33;;;;;;;;;;5051368;28;20489;-72
2023/10/25 07:44:37;;;;;;;5.20;2.05;;;;;;;;;;5041007;28;20584;-72
2023/10/25 07:47:04;;;;;;;4.15;2.30;;;;;;;;;;5043537;28;20041;-72
2023/10/25 07:49:34;;;;;;;4.70;1.67;;;;;;;;;;5041731;28;20039;-72
2023/10/25 07:52:00;;;;;;;5.40;1.60;;;;;;;;;;5053951;28;20024;-72
2023/10/25 07:54:27;;;;;;;6.90;2.28;;;;;;;;;;5048883;28;20498;-72
2023/10/25 07:56:53;;;;;;;6.68;5.43;;;;;;;;;;5053939;28;20032;-72
2023/10/25 07:59:19;;;;;;;4.13;1.90;;;;;;;;;;5053436;28;20053;-72
2023/10/25 08:01:46;;;;;;;4.75;1.85;;;;;;;;;;5054742;28;20486;-72
2023/10/25 08:04:12;;;;;;;4.05;2.05;;;;;;;;;;5053347;28;20389;-72
2023/10/25 08:06:38;;;;;;;3.78;2.42;;;;;;;;;;5053762;28;20027;-71
2023/10/25 08:09:05;;;;;;;11.73;2.60;;;;;;;;;;5054141;28;20032;-72
2023/10/25 08:11:35;;;;;;;6.97;2.80;;;;;;;;;;5036373;28;20502;-72
2023/10/25 08:14:02;;;;;;;4.47;3.05;;;;;;;;;;5041726;28;20027;-70
2023/10/25 08:16:28;;;;;;;6.85;3.13;;;;;;;;;;5051572;28;20017;-72
2023/10/25 08:18:55;;;;;;;8.25;3.00;;;;;;;;;;5054317;28;20029;-72
2023/10/25 08:21:21;;;;;;;4.82;3.00;;;;;;;;;;5054251;28;20389;-72
2023/10/25 08:23:51;;;;;;;7.18;2.78;;;;;;;;;;5054067;28;20021;-72
2023/10/25 08:26:26;;;;;;;4.20;2.55;;;;;;;;;;5053758;28;20017;-71
2023/10/25 08:28:52;;;;;;;4.47;2.50;;;;;;;;;;5045505;28;20037;-72
2023/10/25 08:31:19;;;;;;;5.10;2.25;;;;;;;;;;5054113;28;20031;-72
2023/10/25 08:33:46;;;;;;;3.50;1.85;;;;;;;;;;5051042;28;20013;-72
2023/10/25 08:36:12;;;;;;;6.15;2.05;;;;;;;;;;5054354;28;20027;-72
2023/10/25 08:38:38;;;;;;;5.55;2.00;;;;;;;;;;5053791;28;20021;-71
2023/10/25 08:41:05;;;;;;;7.40;2.63;;;;;;;;;;5053864;28;20041;-72
2023/10/25 08:43:35;;;;;;;3.83;1.75;;;;;;;;;;5053623;28;20496;-72
2023/10/25 08:46:03;;;;;;;3.08;1.70;;;;;;;;;;5054020;28;20029;-72
2023/10/25 08:48:29;;;;;;;6.80;1.80;;;;;;;;;;5054195;28;20024;-72
2023/10/25 08:50:56;;;;;;;4.50;2.10;;;;;;;;;;5053690;28;20033;-72
2023/10/25 08:53:24;;;;;;;3.00;1.83;;;;;;;;;;5053762;28;20025;-72
2023/10/25 08:55:54;;;;;;;19.10;9.85;;;;;;;;;;5062328;28;20027;-71
2023/10/25 08:58:21;;;;;;;4.60;2.90;;;;;;;;;;5053663;28;20098;-72
2023/10/25 09:00:48;;;;;;;17.10;7.47;;;;;;;;;;5057818;28;20280;-72
2023/10/25 09:03:33;;;;;;;2.22;1.10;;;;;;;;;;5039416;28;20048;-72
2023/10/25 09:06:01;;;;;;;5.40;1.75;;;;;;;;;;5068227;28;20021;-71
2023/10/25 09:08:27;;;;;;;5.63;1.73;;;;;;;;;;5073164;28;20059;-72
2023/10/25 09:10:57;;;;;;;3.75;2.00;;;;;;;;;;5073163;28;20032;-72
2023/10/25 09:13:24;;;;;;;4.25;2.17;;;;;;;;;;5068991;28;20029;-72
2023/10/25 09:15:51;;;;;;;4.25;1.92;;;;;;;;;;5052736;28;20031;-72
2023/10/25 09:18:17;;;;;;;6.13;2.83;;;;;;;;;;5044783;28;20017;-72
2023/10/25 09:20:50;;;;;;;3.15;2.20;;;;;;;;;;5045291;28;20021;-71
2023/10/25 09:23:16;;;;;;;4.13;2.15;;;;;;;;;;5052537;28;20101;-72
2023/10/25 09:25:44;;;;;;;16.50;10.07;;;;;;;;;;5050167;28;20014;-72
2023/10/25 09:28:30;;;;;;;7.30;4.90;;;;;;;;;;5053332;28;20066;-71
2023/10/25 09:30:58;;;;;;;5.97;3.60;;;;;;;;;;5052681;28;20051;-73
2023/10/25 09:33:25;;;;;;;12.30;8.10;;;;;;;;;;5053223;28;20457;-72
2023/10/25 09:35:54;;;;;;;16.60;5.43;;;;;;;;;;5049979;28;20055;-72
2023/10/25 09:38:21;;;;;;;21.75;9.50;;;;;;;;;;5051587;28;20020;-72
2023/10/25 09:40:50;;;;;;;3.97;1.90;;;;;;;;;;5053256;28;20031;-72
2023/10/25 09:43:19;;;;;;;2.13;1.40;;;;;;;;;;5052974;28;20024;-72
2023/10/25 09:45:52;;;;;;;3.60;1.50;;;;;;;;;;5053026;28;20474;-72
2023/10/25 09:48:19;;;;;;;3.53;1.65;;;;;;;;;;5052701;28;20025;-72
2023/10/25 09:51:04;;;;;;;2.63;1.55;;;;;;;;;;5053929;28;20033;-72
2023/10/25 09:53:42;;;;;;;7.25;1.60;;;;;;;;;;5041420;28;20018;-71
2023/10/25 09:56:09;;;;;;;1.50;1.20;;;;;;;;;;5046023;28;20029;-72
2023/10/25 09:58:36;;;;;;;14.07;7.65;;;;;;;;;;5041188;28;20036;-72
2023/10/25 10:01:03;;;;;;;6.45;2.22;;;;;;;;;;5050946;28;20123;-71
2023/10/25 10:03:32;;;;;;;5.95;3.72;;;;;;;;;;5047014;28;20022;-72
2023/10/25 10:06:28;;;;;;;7.95;3.83;;;;;;;;;;5048341;28;20515;-72
2023/10/25 10:08:54;;;;;;;8.05;5.70;;;;;;;;;;5012958;28;20034;-72
2023/10/25 10:11:24;;;;;;;7.68;3.05;;;;;;;;;;5033235;28;20075;-72
2023/10/25 10:14:09;;;;;;;2.85;1.92;;;;;;;;;;5030457;28;20041;-72
2023/10/25 10:16:35;;;;;;;2.85;1.77;;;;;;;;;;5029937;28;20034;-72
2023/10/25 10:19:01;;;;;;;6.03;2.00;;;;;;;;;;5029202;28;20047;-72
2023/10/25 10:21:28;;;;;;;4.88;2.60;;;;;;;;;;5030270;28;20026;-71
2023/10/25 10:23:56;;;;;;;5.25;4.65;;;;;;;;;;5030520;28;20038;-71
2023/10/25 10:26:41;;;;;;;3.58;1.80;;;;;;;;;;5013868;28;20541;-72
2023/10/25 10:29:27;;;;;;;2.05;1.60;;;;;;;;;;5028491;28;20052;-71
2023/10/25 10:31:56;;;;;;;4.07;1.92;;;;;;;;;;5029263;28;20059;-72
2023/10/25 10:34:41;;;;;;;2.88;1.70;;;;;;;;;;5029854;28;20762;-72
2023/10/25 10:37:09;;;;;;;2.45;1.60;;;;;;;;;;5030095;28;20030;-72
2023/10/25 10:39:36;;;;;;;4.03;1.90;;;;;;;;;;5029874;28;20554;-72
2023/10/25 10:42:03;;;;;;;4.65;1.63;;;;;;;;;;5030116;28;20038;-72
2023/10/25 10:44:30;;;;;;;3.08;1.80;;;;;;;;;;5030365;28;20033;-72
2023/10/25 10:46:59;;;;;;;3.80;1.80;;;;;;;;;;5032314;28;20028;-72
2023/10/25 10:49:28;;;;;;;13.07;6.35;;;;;;;;;;5032252;28;20025;-72
2023/10/25 10:51:55;;;;;;;3.90;2.50;;;;;;;;;;5031933;28;20583;-71
2023/10/25 10:54:21;;;;;;;4.22;2.17;;;;;;;;;;5032017;28;20513;-72
2023/10/25 10:56:47;;;;;;;6.18;2.30;;;;;;;;;;5047322;28;20486;-72
2023/10/25 10:59:14;;;;;;;4.03;2.47;;;;;;;;;;5031824;28;20049;-72
2023/10/25 11:01:41;;;;;;;4.05;1.95;;;;;;;;;;5031957;28;20405;-71
2023/10/25 11:04:07;;;;;;;5.88;2.85;;;;;;;;;;5031745;28;20026;-71
2023/10/25 11:06:34;;;;;;;2.97;2.03;;;;;;;;;;5031839;28;20038;-72
2023/10/25 11:09:00;;;;;;;5.00;3.00;;;;;;;;;;5038601;28;20029;-72
2023/10/25 11:11:26;;;;;;;5.47;1.80;;;;;;;;;;5051672;28;20049;-72
2023/10/25 11:13:53;;;;;;;4.78;1.98;;;;;;;;;;5051724;28;20021;-71
2023/10/25 11:16:20;;;;;;;23.25;15.75;;;;;;;;;;5051591;28;20025;-72
2023/10/25 11:18:46;;;;;;;26.10;14.65;;;;;;;;;;5050376;28;20029;-72
2023/10/25 11:21:14;;;;;;;6.20;4.05;;;;;;;;;;5051365;28;20035;-72
2023/10/25 11:23:40;;;;;;;21.33;7.80;;;;;;;;;;5050379;28;20021;-71
2023/10/25 11:26:07;;;;;;;6.53;3.55;;;;;;;;;;5051443;28;20025;-71
2023/10/25 11:28:33;;;;;;;6.35;3.45;;;;;;;;;;5050213;28;20475;-71
2023/10/25 11:31:03;;;;;;;10.88;5.93;;;;;;;;;;5050806;28;20041;-72
2023/10/25 11:33:29;;;;;;;6.43;3.00;;;;;;;;;;5049908;28;20032;-72
2023/10/25 11:35:56;;;;;;;18.88;14.15;;;;;;;;;;5049337;28;20393;-72
2023/10/25 11:38:25;;;;;;;12.27;8.15;;;;;;;;;;5050710;28;20017;-71
2023/10/25 11:40:51;;;;;;;6.80;4.70;;;;;;;;;;5054374;28;20019;-72
2023/10/25 11:43:17;;;;;;;6.97;2.90;;;;;;;;;;5051088;28;20482;-72
2023/10/25 11:45:46;;;;;;;7.55;4.20;;;;;;;;;;5051212;28;20037;-72
2023/10/25 11:48:13;;;;;;;4.88;2.70;;;;;;;;;;5050968;28;20237;-72
2023/10/25 11:50:44;;;;;;;7.20;2.95;;;;;;;;;;5051040;28;20033;-72
2023/10/25 11:53:13;;;;;;;8.10;2.88;;;;;;;;;;5049664;28;20033;-72
2023/10/25 11:55:40;;;;;;;6.60;2.97;;;;;;;;;;5052823;28;20082;-72
2023/10/25 11:58:06;;;;;;;10.98;4.40;;;;;;;;;;5070759;28;20040;-72
2023/10/25 12:00:33;;;;;;;7.13;3.70;;;;;;;;;;5064590;28;20078;-71
2023/10/25 12:02:59;;;;;;;6.53;2.72;;;;;;;;;;5050147;28;20035;-72
2023/10/25 12:05:26;;;;;;;4.60;2.20;;;;;;;;;;5050657;28;20029;-72
2023/10/25 12:07:53;;;;;;;4.55;1.90;;;;;;;;;;5030943;28;20021;-72
2023/10/25 12:10:19;;;;;;;5.78;2.13;;;;;;;;;;5045935;28;20031;-72
2023/10/25 12:12:46;;;;;;;6.22;2.05;;;;;;;;;;5050864;28;20493;-72
2023/10/25 12:15:12;;;;;;;5.40;2.30;;;;;;;;;;5050915;28;20063;-72
2023/10/25 12:17:38;;;;;;;6.22;2.10;;;;;;;;;;5050180;28;20032;-72
2023/10/25 12:20:05;;;;;;;3.58;2.15;;;;;;;;;;5050878;28;20486;-72
2023/10/25 12:22:31;;;;;;;5.70;2.33;;;;;;;;;;5050794;28;20099;-72
2023/10/25 12:24:57;;;;;;;5.07;2.65;;;;;;;;;;5050948;28;20024;-71
2023/10/25 12:27:24;;;;;;;7.50;1.98;;;;;;;;;;5050672;28;20055;-72
2023/10/25 12:29:50;;;;;;;8.82;2.95;;;;;;;;;;5050279;28;20033;-71
2023/10/25 12:32:21;;;;;;;5.65;1.95;;;;;;;;;;5050409;28;20017;-72
2023/10/25 12:34:48;;;;;;;5.50;1.85;;;;;;;;;;5051156;28;20035;-72
2023/10/25 12:37:14;;;;;;;9.52;1.70;;;;;;;;;;5051494;28;20025;-71
2023/10/25 12:39:41;;;;;;;5.63;1.75;;;;;;;;;;5054441;28;20033;-72
2023/10/25 12:42:07;;;;;;;7.30;1.73;;;;;;;;;;5054564;28;20029;-72
2023/10/25 12:44:33;;;;;;;10.75;2.00;;;;;;;;;;5053918;28;20145;-72
2023/10/25 12:47:03;;;;;;;6.63;1.92;;;;;;;;;;5054165;28;20029;-72
2023/10/25 12:49:29;;;;;;;16.77;4.47;;;;;;;;;;5054156;28;20039;-72
2023/10/25 12:51:56;;;;;;;9.98;2.35;;;;;;;;;;5055167;28;20043;-71
2023/10/25 12:54:22;;;;;;;7.78;1.88;;;;;;;;;;5054144;28;20376;-72
2023/10/25 12:56:48;;;;;;;11.63;2.35;;;;;;;;;;5053948;28;20409;-72
2023/10/25 12:59:15;;;;;;;12.02;3.20;;;;;;;;;;5053421;28;20403;-71
2023/10/25 13:01:41;;;;;;;13.68;3.08;;;;;;;;;;5054093;28;20023;-71
2023/10/25 13:04:07;;;;;;;12.40;3.40;;;;;;;;;;5054033;28;20017;-71
2023/10/25 13:06:34;;;;;;;8.27;2.08;;;;;;;;;;5053816;28;20058;-71
2023/10/25 13:09:00;;;;;;;18.17;5.80;;;;;;;;;;5053659;28;20033;-72
2023/10/25 13:11:26;;;;;;;19.90;5.13;;;;;;;;;;5053994;28;20028;-72
2023/10/25 13:13:53;;;;;;;14.77;4.57;;;;;;;;;;5053228;28;20028;-72
2023/10/25 13:16:20;;;;;;;11.52;4.13;;;;;;;;;;5053739;28;20070;-71
2023/10/25 13:18:46;;;;;;;11.40;2.80;;;;;;;;;;5053578;28;20032;-71
2023/10/25 13:21:12;;;;;;;9.65;4.13;;;;;;;;;;5053781;28;20017;-72
2023/10/25 13:23:39;;;;;;;4.43;1.92;;;;;;;;;;5053471;28;20032;-72
2023/10/25 13:26:05;;;;;;;6.35;2.50;;;;;;;;;;5053986;28;20508;-72
2023/10/25 13:28:31;;;;;;;6.20;2.13;;;;;;;;;;5064867;28;20017;-72
2023/10/25 13:30:58;;;;;;;5.05;1.38;;;;;;;;;;5053343;28;20039;-72
2023/10/25 13:33:24;;;;;;;13.45;2.45;;;;;;;;;;5053700;28;20029;-71
2023/10/25 13:35:51;;;;;;;6.38;1.77;;;;;;;;;;5053052;28;20385;-72
2023/10/25 13:38:19;;;;;;;3.40;1.40;;;;;;;;;;5053100;28;20021;-72
2023/10/25 13:40:46;;;;;;;3.80;1.50;;;;;;;;;;5053438;28;20051;-71
2023/10/25 13:43:15;;;;;;;4.18;1.05;;;;;;;;;;5053095;28;20025;-72
2023/10/25 13:45:42;;;;;;;4.28;1.35;;;;;;;;;;5052791;28;20039;-72
2023/10/25 13:48:08;;;;;;;5.00;1.20;;;;;;;;;;5069001;28;20025;-72
2023/10/25 13:50:35;;;;;;;4.32;0.90;;;;;;;;;;5073011;28;20040;-72
2023/10/25 13:53:01;;;;;;;5.85;1.42;;;;;;;;;;5072930;28;20012;-72
2023/10/25 13:55:27;;;;;;;3.78;1.45;;;;;;;;;;5071788;28;20044;-72
2023/10/25 13:57:54;;;;;;;6.35;1.70;;;;;;;;;;5072196;28;20074;-71
2023/10/25 14:00:20;;;;;;;6.85;1.67;;;;;;;;;;5072646;28;20042;-72
2023/10/25 14:02:47;;;;;;;10.57;1.58;;;;;;;;;;5072662;28;20020;-72
2023/10/25 14:05:14;;;;;;;11.02;1.70;;;;;;;;;;5072801;28;20081;-72
2023/10/25 14:07:41;;;;;;;10.98;1.90;;;;;;;;;;5056903;28;20074;-72
2023/10/25 14:10:08;;;;;;;8.80;1.60;;;;;;;;;;5051320;28;20047;-72
2023/10/25 14:12:35;;;;;;;7.22;1.75;;;;;;;;;;5052137;28;20017;-71
2023/10/25 14:15:01;;;;;;;11.75;1.80;;;;;;;;;;5052410;28;20029;-72
2023/10/25 14:17:27;;;;;;;14.02;2.13;;;;;;;;;;5051964;28;20033;-71
2023/10/25 14:19:54;;;;;;;10.25;1.63;;;;;;;;;;5049450;28;20036;-72
2023/10/25 14:22:20;;;;;;;9.52;1.77;;;;;;;;;;5052663;28;20029;-72
2023/10/25 14:24:46;;;;;;;6.90;1.83;;;;;;;;;;5052410;28;20485;-72
2023/10/25 14:27:12;;;;;;;7.78;1.60;;;;;;;;;;5058501;28;20069;-72
2023/10/25 14:29:39;;;;;;;7.32;1.40;;;;;;;;;;5054358;28;20397;-71
2023/10/25 14:32:05;;;;;;;10.13;1.90;;;;;;;;;;5051918;28;20017;-72
2023/10/25 14:34:31;;;;;;;7.95;1.77;;;;;;;;;;5051665;28;20051;-72
2023/10/25 14:36:58;;;;;;;9.75;1.85;;;;;;;;;;5051519;28;20021;-72
2023/10/25 14:39:24;;;;;;;10.00;1.65;;;;;;;;;;5050687;28;20024;-71
2023/10/25 14:41:51;;;;;;;9.70;1.90;;;;;;;;;;5051725;28;20039;-72